KBPC

Pampa

Pampa, Texas, USA
METAR KBPC 241955Z AUTO 34015G19KT 10SM SCT047 11/M03 A2984 RMK AO2
Observed Flight Rules
Feb-24 @ 19:55 UTC (16 minutes ago) Visual Flight Rules
Wind Visibility Clouds
340° at 15 knots
 Gusting to 19 knots
10 miles
  • Scattered at 4,700' AGL
Temperatures Readings
Current 11°C / 52°F
Dewpoint -3°C / 27°F
Humidity 38%
Altimeter 29.84" Hg
Pressure 1010 hPa
Elevation 845
METAR KBPC 241955Z AUTO 34015G19KT 10SM SCT047 11/M03 A2984 RMK AO2
Observed Flight Rules
Feb-24 @ 19:55 UTC
(16 minutes ago)
VFR
Wind Visibility
340° at 15 knots
 Gusting to 19 knots
10 miles
Clouds
  • Scattered at 4,700' AGL
Temperature Dewpoint
11°C / 52°F -3°C / 27°F
Humidity Altimeter Pressure
38% 29.84" Hg 1010 hPa